Time;durP1;ratioP1;P1;durP2;ratioP2;P2;SDS_P1;SDS_P2;PMS_P1;PMS_P2;Temp;Humidity;BMP_temperature;BMP_pressure;BME280_temperature;BME280_humidity;BME280_pressure;Samples;Min_cycle;Max_cycle;Signal;HPM_P1;HPM_P2
2022/02/02 00:02:07;;;;;;;74.85;7.97;;;;;;;4.35;100.00;100149.78;4999603;28;20045;-76
2022/02/02 00:04:35;;;;;;;74.32;9.15;;;;;;;4.34;100.00;100153.34;4983676;28;20682;-75
2022/02/02 00:09:32;;;;;;;83.85;9.48;;;;;;;4.33;100.00;100147.31;4991621;28;20038;-74
2022/02/02 00:12:11;;;;;;;82.25;10.43;;;;;;;4.36;100.00;100161.84;4990094;28;20152;-75
2022/02/02 00:17:19;;;;;;;75.57;8.80;;;;;;;4.40;100.00;100165.84;5010842;28;20026;-75
2022/02/02 00:20:00;;;;;;;81.65;9.45;;;;;;;4.38;100.00;100167.72;4993032;28;20049;-75
2022/02/02 00:22:33;;;;;;;78.00;10.27;;;;;;;4.52;100.00;100156.25;5009252;28;20034;-76
2022/02/02 00:27:41;;;;;;;83.25;10.15;;;;;;;4.51;100.00;100184.00;5004800;28;20041;-76
2022/02/02 00:30:11;;;;;;;65.80;9.50;;;;;;;4.52;100.00;100159.69;4976883;28;20125;-76
2022/02/02 00:35:05;;;;;;;82.90;10.02;;;;;;;4.54;100.00;100162.13;5003131;28;20060;-77
2022/02/02 00:37:31;;;;;;;79.28;10.05;;;;;;;4.48;100.00;100164.31;4986707;28;20030;-76
2022/02/02 00:39:57;;;;;;;84.68;10.38;;;;;;;4.48;100.00;100166.03;5009192;28;20030;-76
2022/02/02 00:42:29;;;;;;;76.22;8.93;;;;;;;4.47;100.00;100173.03;5008032;28;20117;-76
2022/02/02 00:44:57;;;;;;;74.80;8.43;;;;;;;4.55;100.00;100169.81;4992888;28;20042;-77
2022/02/02 00:47:24;;;;;;;67.95;8.55;;;;;;;4.68;100.00;100188.69;4989716;28;20508;-76
2022/02/02 00:49:54;;;;;;;65.38;9.43;;;;;;;4.59;100.00;100168.63;4995861;28;20133;-77
2022/02/02 00:52:21;;;;;;;64.88;7.47;;;;;;;4.48;100.00;100218.00;4989834;28;20479;-75
2022/02/02 00:54:49;;;;;;;53.75;8.32;;;;;;;4.41;100.00;100214.25;4991493;28;20037;-77
2022/02/02 00:57:15;;;;;;;64.32;9.20;;;;;;;4.42;100.00;100195.09;4990851;28;20034;-75
2022/02/02 00:59:40;;;;;;;71.13;9.45;;;;;;;4.32;100.00;100195.00;5000307;28;20389;-77
2022/02/02 01:02:39;;;;;;;78.47;9.05;;;;;;;4.14;100.00;100176.47;4990920;28;20037;-79
2022/02/02 01:05:08;;;;;;;68.13;9.63;;;;;;;4.19;100.00;100192.53;4904852;29;20759;-74
2022/02/02 01:10:25;;;;;;;70.35;9.20;;;;;;;4.05;100.00;100197.94;4901664;29;20067;-74
2022/02/02 01:18:26;;;;;;;68.90;9.15;;;;;;;3.95;100.00;100197.81;4892848;29;20080;-74
2022/02/02 01:28:39;;;;;;;67.50;9.02;;;;;;;4.08;100.00;100221.09;4899645;29;20047;-74
2022/02/02 01:31:06;;;;;;;63.20;8.73;;;;;;;4.13;100.00;100207.78;4893061;29;20517;-74
2022/02/02 01:33:32;;;;;;;69.20;8.75;;;;;;;4.22;100.00;100226.06;4889343;29;20059;-74
2022/02/02 01:35:59;;;;;;;60.63;8.80;;;;;;;4.22;100.00;100225.19;4888405;29;20072;-75
2022/02/02 01:38:28;;;;;;;66.70;8.73;;;;;;;4.28;100.00;100237.72;4904173;29;20032;-74
2022/02/02 01:41:04;;;;;;;72.45;8.45;;;;;;;4.31;100.00;100223.69;4889377;29;20206;-75
2022/02/02 01:43:37;;;;;;;72.30;8.18;;;;;;;4.46;100.00;100225.06;4909759;29;20099;-74
2022/02/02 01:46:11;;;;;;;59.60;7.93;;;;;;;4.44;100.00;100232.97;4895514;29;20074;-75
2022/02/02 01:48:59;;;;;;;53.78;7.85;;;;;;;4.44;100.00;100235.56;4907812;29;20142;-75
2022/02/02 01:56:18;;;;;;;58.25;6.90;;;;;;;4.31;100.00;100232.28;4908757;29;20032;-75
2022/02/02 02:01:11;;;;;;;58.75;8.23;;;;;;;4.28;100.00;100222.97;4902048;29;20039;-75
2022/02/02 02:03:37;;;;;;;54.35;6.50;;;;;;;4.25;100.00;100243.97;4898408;29;20039;-76
2022/02/02 02:06:04;;;;;;;56.50;6.20;;;;;;;4.25;100.00;100254.34;4915988;29;20028;-75
2022/02/02 02:08:30;;;;;;;56.05;7.68;;;;;;;4.23;100.00;100264.03;4907386;29;20035;-75
2022/02/02 02:10:57;;;;;;;65.45;8.75;;;;;;;4.31;100.00;100247.88;4926314;29;20039;-75
2022/02/02 02:16:05;;;;;;;56.47;8.00;;;;;;;4.26;100.00;100274.19;4911270;29;20036;-76
2022/02/02 02:18:30;;;;;;;60.35;6.63;;;;;;;4.26;100.00;100283.75;4903422;29;20042;-75
2022/02/02 02:20:56;;;;;;;44.42;5.43;;;;;;;4.31;100.00;100280.81;4880000;29;20043;-75
2022/02/02 02:23:24;;;;;;;44.42;5.35;;;;;;;4.35;100.00;100274.41;4908157;29;20032;-74
2022/02/02 02:25:49;;;;;;;44.30;5.30;;;;;;;4.37;100.00;100272.53;4878953;29;20402;-76
2022/02/02 02:33:33;;;;;;;49.08;6.00;;;;;;;4.24;100.00;100298.63;4912296;29;20456;-74
2022/02/02 02:57:52;;;;;;;42.58;5.35;;;;;;;4.28;100.00;100290.47;4906807;29;20507;-75
2022/02/02 03:00:26;;;;;;;50.42;6.32;;;;;;;4.25;100.00;100293.28;4910345;29;20229;-75
2022/02/02 03:13:47;;;;;;;48.17;6.45;;;;;;;4.19;100.00;100290.34;4889254;29;20154;-73
2022/02/02 04:00:10;;;;;;;47.65;6.88;;;;;;;4.42;100.00;100330.97;4911430;29;20051;-73
2022/02/02 04:02:53;;;;;;;46.92;6.70;;;;;;;4.37;100.00;100320.13;4912902;29;20032;-74
2022/02/02 04:05:27;;;;;;;44.65;6.32;;;;;;;4.29;100.00;100335.44;4927075;29;20478;-74
2022/02/02 04:08:06;;;;;;;41.97;5.68;;;;;;;4.27;100.00;100330.34;4895477;29;20056;-75
2022/02/02 04:10:32;;;;;;;37.60;5.10;;;;;;;4.32;100.00;100345.59;4911220;29;20414;-75
2022/02/02 04:13:10;;;;;;;46.83;5.68;;;;;;;4.37;100.00;100342.66;4912207;29;20091;-75
2022/02/02 04:37:45;;;;;;;45.58;6.03;;;;;;;4.42;100.00;100367.31;4911644;29;20039;-73
2022/02/02 04:54:14;;;;;;;43.45;5.47;;;;;;;4.27;100.00;100378.88;4890930;29;20040;-73
2022/02/02 04:59:37;;;;;;;48.80;5.32;;;;;;;4.20;100.00;100386.31;4910798;29;20036;-73
2022/02/02 05:50:51;;;;;;;38.67;4.30;;;;;;;4.41;100.00;100443.59;4904761;29;20761;-74
2022/02/02 05:52:45;;;;;;;32.85;5.72;;;;;;;4.36;100.00;100450.06;4885381;29;20052;-73
2022/02/02 05:55:12;;;;;;;40.17;4.78;;;;;;;4.35;100.00;100451.00;4909079;29;20046;-73
2022/02/02 05:57:43;;;;;;;40.97;5.38;;;;;;;4.28;100.00;100468.81;4894965;29;20033;-73
2022/02/02 06:00:09;;;;;;;33.08;4.40;;;;;;;4.26;100.00;100491.47;4903634;29;20042;-72
2022/02/02 06:02:46;;;;;;;35.38;5.00;;;;;;;4.19;100.00;100506.66;4897831;29;20043;-73
2022/02/02 06:05:12;;;;;;;35.63;5.00;;;;;;;4.10;100.00;100513.31;4909233;28;20537;-72
2022/02/02 06:07:40;;;;;;;38.25;4.45;;;;;;;4.20;100.00;100510.91;4909504;29;20083;-73
2022/02/02 06:10:09;;;;;;;30.95;4.25;;;;;;;4.17;100.00;100505.13;4908409;29;20469;-72
2022/02/02 06:12:35;;;;;;;33.15;4.32;;;;;;;4.15;100.00;100525.16;4909196;29;20470;-73
2022/02/02 06:15:08;;;;;;;27.25;3.80;;;;;;;4.20;100.00;100516.09;4905363;29;20051;-73
2022/02/02 06:17:39;;;;;;;33.53;4.43;;;;;;;4.07;100.00;100523.13;4872736;29;20815;-73
2022/02/02 06:20:06;;;;;;;27.92;4.75;;;;;;;4.11;100.00;100511.56;4892544;29;20047;-72
2022/02/02 06:22:33;;;;;;;36.67;4.25;;;;;;;4.03;100.00;100535.50;4906929;29;20058;-74
2022/02/02 06:25:04;;;;;;;31.23;4.70;;;;;;;3.99;100.00;100536.63;4893985;29;20040;-74
2022/02/02 06:27:36;;;;;;;27.00;4.05;;;;;;;3.90;100.00;100548.50;4908973;29;20032;-73
2022/02/02 06:30:04;;;;;;;35.55;4.93;;;;;;;3.92;100.00;100552.72;4891241;29;20036;-73
2022/02/02 06:32:41;;;;;;;36.03;4.63;;;;;;;3.87;100.00;100553.06;4906480;29;20117;-73
2022/02/02 06:35:09;;;;;;;27.15;4.93;;;;;;;3.91;100.00;100559.69;4908225;29;20051;-73
2022/02/02 06:37:38;;;;;;;38.17;5.78;;;;;;;3.88;100.00;100558.16;4902246;29;20048;-73
2022/02/02 06:40:04;;;;;;;33.58;5.22;;;;;;;3.80;100.00;100585.56;4923656;29;20028;-73
2022/02/02 06:42:30;;;;;;;31.17;4.03;;;;;;;3.84;100.00;100592.19;4888908;29;20371;-73
2022/02/02 06:44:59;;;;;;;39.42;5.10;;;;;;;3.74;100.00;100560.06;4889081;29;20515;-72
2022/02/02 06:47:26;;;;;;;31.35;4.70;;;;;;;3.86;100.00;100598.97;4903280;29;20123;-73
2022/02/02 06:50:02;;;;;;;32.28;4.65;;;;;;;3.92;100.00;100602.03;4912233;29;20043;-73
2022/02/02 06:52:30;;;;;;;39.33;5.10;;;;;;;3.90;100.00;100604.75;4912502;29;20119;-73
2022/02/02 06:55:17;;;;;;;35.72;4.35;;;;;;;3.80;100.00;100627.06;4908339;29;20118;-72
2022/02/02 06:58:03;;;;;;;31.92;4.50;;;;;;;3.76;100.00;100623.03;4893924;29;20051;-73
2022/02/02 07:00:56;;;;;;;34.95;5.28;;;;;;;3.86;100.00;100647.41;4912186;29;20068;-73
2022/02/02 07:03:55;;;;;;;39.88;4.30;;;;;;;3.77;100.00;100655.81;4939045;23;20040;-77
2022/02/02 07:06:45;;;;;;;35.88;4.40;;;;;;;3.96;100.00;100665.78;4962782;28;20037;-76
2022/02/02 07:12:05;;;;;;;31.05;5.05;;;;;;;3.93;100.00;100681.56;4985907;28;20069;-76
2022/02/02 07:32:31;;;;;;;34.10;4.50;;;;;;;3.88;100.00;100734.63;4958963;28;20061;-76
2022/02/02 07:35:35;;;;;;;42.35;5.47;;;;;;;3.84;100.00;100733.16;4953811;28;20035;-76
2022/02/02 07:37:56;;;;;;;37.70;5.65;;;;;;;3.91;100.00;100738.75;4955061;28;20050;-76
2022/02/02 07:40:23;;;;;;;45.38;5.18;;;;;;;3.94;100.00;100746.34;4937562;28;20098;-76
2022/02/02 07:42:50;;;;;;;42.08;5.78;;;;;;;3.96;100.00;100739.28;4963299;28;20046;-76
2022/02/02 07:45:19;;;;;;;40.88;5.50;;;;;;;3.96;100.00;100741.88;4944612;28;20034;-76
2022/02/02 07:47:48;;;;;;;36.60;6.07;;;;;;;4.03;100.00;100753.50;4946616;28;20042;-77
2022/02/02 07:50:15;;;;;;;45.58;6.03;;;;;;;4.05;100.00;100758.56;4987716;28;20022;-76
2022/02/02 07:52:46;;;;;;;33.53;5.20;;;;;;;4.08;100.00;100753.19;4965634;28;20545;-76
2022/02/02 07:55:13;;;;;;;34.13;5.03;;;;;;;4.19;100.00;100755.06;4962906;28;20077;-76
2022/02/02 07:57:41;;;;;;;46.33;4.90;;;;;;;4.09;100.00;100745.31;4972610;28;20452;-75
2022/02/02 08:00:16;;;;;;;43.75;5.43;;;;;;;4.07;100.00;100762.75;4976956;28;20039;-76
2022/02/02 08:05:27;;;;;;;41.70;5.65;;;;;;;4.25;100.00;100780.59;4958551;28;20027;-76
2022/02/02 08:10:39;;;;;;;32.97;4.72;;;;;;;4.20;100.00;100780.94;4953640;28;20043;-76
2022/02/02 08:13:40;;;;;;;29.08;4.45;;;;;;;4.13;100.00;100784.03;4971901;28;20113;-76
2022/02/02 08:15:58;;;;;;;38.17;5.72;;;;;;;4.13;100.00;100782.28;4974800;28;20047;-74
2022/02/02 08:18:24;;;;;;;34.88;4.45;;;;;;;4.16;100.00;100783.81;4961462;28;20035;-76
2022/02/02 08:20:49;;;;;;;36.40;4.85;;;;;;;4.20;100.00;100809.47;4972030;28;20031;-76
2022/02/02 08:23:15;;;;;;;41.60;4.90;;;;;;;4.24;100.00;100818.72;4972798;28;20345;-74
2022/02/02 08:25:42;;;;;;;35.92;4.70;;;;;;;4.24;100.00;100813.53;4968489;28;20039;-76
2022/02/02 08:28:09;;;;;;;34.60;4.30;;;;;;;4.26;100.00;100824.63;4974859;28;20042;-76
2022/02/02 08:30:35;;;;;;;46.22;4.72;;;;;;;4.23;100.00;100837.81;4973599;28;20097;-76
2022/02/02 08:33:05;;;;;;;38.00;4.70;;;;;;;4.26;100.00;100824.63;4977770;28;20512;-75
2022/02/02 08:35:34;;;;;;;34.38;4.78;;;;;;;4.27;100.00;100822.88;4967395;28;20053;-75
2022/02/02 08:40:57;;;;;;;41.17;4.70;;;;;;;4.35;100.00;100848.31;4952473;28;20043;-77
2022/02/02 08:43:28;;;;;;;32.85;4.40;;;;;;;4.41;100.00;100860.91;4967969;28;20137;-76
2022/02/02 08:46:01;;;;;;;29.77;4.40;;;;;;;4.48;100.00;100873.38;4969830;28;20058;-77
2022/02/02 08:48:27;;;;;;;39.88;5.00;;;;;;;4.51;100.00;100880.13;4952006;28;20151;-75
2022/02/02 08:50:58;;;;;;;36.42;4.45;;;;;;;4.56;100.00;100885.00;4971562;28;20042;-76
2022/02/02 08:56:13;;;;;;;41.63;5.05;;;;;;;4.57;100.00;100895.28;4955177;28;20049;-76
2022/02/02 08:58:45;;;;;;;35.38;4.35;;;;;;;4.65;100.00;100898.22;4942120;29;20137;-76
2022/02/02 09:01:24;;;;;;;39.90;4.70;;;;;;;4.60;100.00;100897.69;4941731;28;20041;-76
2022/02/02 09:06:34;;;;;;;36.95;5.15;;;;;;;4.63;100.00;100907.03;4964615;28;20490;-76
2022/02/02 09:09:10;;;;;;;39.70;4.57;;;;;;;4.69;100.00;100901.44;4965186;28;20039;-76
2022/02/02 09:20:07;;;;;;;37.10;4.55;;;;;;;4.57;100.00;100916.06;4972110;28;20046;-76
2022/02/02 09:25:23;;;;;;;37.10;4.88;;;;;;;4.76;100.00;100914.81;4971511;28;20060;-76
2022/02/02 09:35:55;;;;;;;36.30;4.07;;;;;;;4.79;100.00;100925.84;4972746;28;20153;-74
2022/02/02 09:38:22;;;;;;;34.47;4.32;;;;;;;4.83;100.00;100939.47;4963994;28;20030;-75
2022/02/02 09:43:23;;;;;;;32.17;4.88;;;;;;;5.02;100.00;100944.22;4964001;28;20034;-76
2022/02/02 09:45:56;;;;;;;32.63;4.80;;;;;;;5.07;100.00;100949.94;4972628;28;20034;-75
2022/02/02 09:48:44;;;;;;;;;;;;;;;4.98;99.79;100953.19;4970077;28;20102;-75
2022/02/02 09:51:14;;;;;;;39.63;4.18;;;;;;;5.02;99.96;100965.84;4957334;28;20081;-76
2022/02/02 09:53:47;;;;;;;33.78;4.25;;;;;;;5.13;97.88;100972.94;4956196;28;20110;-75
2022/02/02 09:56:35;;;;;;;35.50;4.63;;;;;;;5.26;98.40;100973.75;4954985;28;20065;-76
2022/02/02 09:59:49;;;;;;;28.65;3.72;;;;;;;5.24;97.52;100985.19;4976739;28;20118;-76
2022/02/02 10:02:34;;;;;;;30.85;4.55;;;;;;;5.22;97.39;100981.88;4964433;28;20043;-76
2022/02/02 10:15:30;;;;;;;24.30;3.35;;;;;;;5.62;95.60;101018.94;4971274;28;20043;-77
2022/02/02 10:18:12;;;;;;;24.52;3.17;;;;;;;5.71;94.43;101034.84;4965113;28;20035;-76
2022/02/02 10:20:38;;;;;;;29.90;3.85;;;;;;;5.78;95.20;101033.47;4967219;28;20050;-76
2022/02/02 10:23:06;;;;;;;29.67;4.15;;;;;;;5.69;93.16;101055.78;4961773;28;20043;-75
2022/02/02 10:25:35;;;;;;;24.83;3.75;;;;;;;5.72;95.44;101067.75;4964106;28;20031;-76
2022/02/02 10:28:17;;;;;;;27.35;3.97;;;;;;;5.67;95.13;101062.88;4962297;28;20389;-77
2022/02/02 10:30:47;;;;;;;29.58;3.85;;;;;;;5.67;94.32;101068.09;4974775;28;20046;-75
2022/02/02 10:33:14;;;;;;;25.70;3.83;;;;;;;5.69;93.30;101093.97;4962993;28;20031;-77
2022/02/02 10:35:48;;;;;;;28.27;3.60;;;;;;;5.73;93.73;101083.25;4957933;28;20043;-74
2022/02/02 10:38:19;;;;;;;27.40;4.00;;;;;;;5.79;93.37;101074.19;4976642;28;20034;-75
2022/02/02 10:41:05;;;;;;;26.38;4.10;;;;;;;5.74;94.40;101082.31;4968985;28;20042;-75
2022/02/02 10:43:45;;;;;;;29.70;4.30;;;;;;;5.84;93.68;101093.75;4974690;28;20405;-76
2022/02/02 10:46:23;;;;;;;28.88;3.40;;;;;;;5.96;93.22;101096.47;4964632;28;20045;-75
2022/02/02 10:48:59;;;;;;;28.17;3.42;;;;;;;6.04;92.06;101100.19;4967669;28;20030;-75
2022/02/02 10:54:32;;;;;;;25.52;2.92;;;;;;;6.10;88.62;101098.91;4970530;28;20035;-77
2022/02/02 10:57:31;;;;;;;23.77;3.20;;;;;;;6.23;88.58;101106.69;4969418;28;20039;-76
2022/02/02 11:00:04;;;;;;;20.17;2.72;;;;;;;6.26;89.06;101103.88;4959866;28;20065;-76
2022/02/02 11:07:59;;;;;;;28.80;4.15;;;;;;;6.15;88.55;101117.66;4968817;28;20135;-76
2022/02/02 11:10:27;;;;;;;24.75;2.97;;;;;;;6.06;84.62;101126.13;4972343;28;20046;-76
2022/02/02 11:12:57;;;;;;;19.13;3.17;;;;;;;6.12;88.28;101133.53;4961389;28;20035;-76
2022/02/02 11:15:35;;;;;;;23.30;3.72;;;;;;;6.16;86.99;101149.75;4982258;28;20047;-77
2022/02/02 11:18:08;;;;;;;19.77;3.03;;;;;;;6.11;84.30;101141.44;4981286;28;20050;-76
2022/02/02 11:20:36;;;;;;;25.63;2.97;;;;;;;6.30;86.83;101149.63;4970143;28;20042;-76
2022/02/02 11:23:02;;;;;;;27.08;3.63;;;;;;;6.47;86.35;101147.59;4976351;28;20039;-77
2022/02/02 11:25:33;;;;;;;21.55;3.13;;;;;;;6.37;85.85;101150.84;4943688;29;20552;-78
2022/02/02 11:28:03;;;;;;;32.10;3.10;;;;;;;6.50;87.88;101160.38;4946239;28;20129;-75
2022/02/02 11:30:29;;;;;;;28.20;3.60;;;;;;;6.42;84.78;101176.56;4970909;28;20109;-76
2022/02/02 11:33:18;;;;;;;26.73;3.22;;;;;;;6.48;85.52;101170.09;4975986;28;20485;-77
2022/02/02 11:38:20;;;;;;;26.02;4.03;;;;;;;6.38;84.50;101180.34;4973414;28;20755;-76
2022/02/02 11:44:08;;;;;;;23.20;3.35;;;;;;;6.22;85.28;101201.44;4975151;28;20050;-77
2022/02/02 11:47:19;;;;;;;23.48;2.90;;;;;;;6.19;84.55;101206.84;4975426;28;20035;-76
2022/02/02 11:49:58;;;;;;;23.50;3.22;;;;;;;6.25;85.07;101196.00;4951491;28;20058;-77
2022/02/02 11:52:45;;;;;;;24.58;4.20;;;;;;;6.25;84.82;101216.84;4974558;28;20049;-75
2022/02/02 11:55:11;;;;;;;21.45;3.40;;;;;;;6.21;83.93;101218.81;4972358;28;20038;-76
2022/02/02 11:57:57;;;;;;;24.15;3.63;;;;;;;6.03;84.89;101220.94;4974226;28;20050;-76
2022/02/02 12:49:58;;;;;;;22.15;2.97;;;;;;;7.35;83.82;101262.88;4967246;28;20035;-75
2022/02/02 12:53:40;;;;;;;20.80;3.00;;;;;;;7.38;81.91;101280.06;4956529;28;20101;-77
2022/02/02 12:58:10;;;;;;;20.88;3.08;;;;;;;7.11;82.87;101288.97;4972101;28;20097;-77
2022/02/02 13:03:04;;;;;;;20.17;2.85;;;;;;;7.04;82.54;101303.38;4973672;28;20047;-76
2022/02/02 13:05:30;;;;;;;16.98;2.67;;;;;;;7.63;81.20;101297.38;4976651;28;20071;-75
2022/02/02 13:07:59;;;;;;;15.38;2.50;;;;;;;7.94;77.61;101305.53;4959347;28;20042;-76
2022/02/02 13:10:26;;;;;;;17.90;2.38;;;;;;;8.16;76.41;101304.75;4976019;28;20026;-77
2022/02/02 13:13:14;;;;;;;21.23;2.58;;;;;;;7.86;75.94;101305.28;4970859;28;20077;-77
2022/02/02 13:15:49;;;;;;;15.88;2.33;;;;;;;7.04;81.00;101311.22;4955850;28;20516;-75
2022/02/02 13:21:03;;;;;;;23.45;2.80;;;;;;;6.97;89.36;101316.03;4967542;28;20070;-75
2022/02/02 13:26:25;;;;;;;18.95;3.17;;;;;;;8.83;77.62;101317.00;4962582;28;20041;-77
2022/02/02 13:29:15;;;;;;;24.83;3.10;;;;;;;8.89;76.83;101319.16;4973927;28;20047;-75
2022/02/02 13:34:26;;;;;;;18.73;3.95;;;;;;;9.19;72.27;101322.88;4955217;28;20078;-76
2022/02/02 14:10:25;;;;;;;18.70;2.67;;;;;;;7.16;76.79;101372.13;4973828;28;20054;-75
2022/02/02 14:32:01;;;;;;;24.05;2.33;;;;;;;5.53;84.74;101428.13;4970568;28;20509;-75
2022/02/02 14:34:26;;;;;;;18.95;3.10;;;;;;;5.45;85.56;101432.97;4975891;28;20034;-76
2022/02/02 14:36:52;;;;;;;17.63;2.33;;;;;;;5.36;86.98;101438.75;4974838;28;20113;-75
2022/02/02 14:39:27;;;;;;;20.88;2.58;;;;;;;5.30;87.93;101446.94;4956340;28;20042;-76
2022/02/02 14:42:07;;;;;;;18.27;2.88;;;;;;;5.39;87.17;101446.38;4956659;28;20035;-75
2022/02/02 14:44:37;;;;;;;15.57;3.38;;;;;;;5.40;88.01;101445.44;4953484;28;20054;-75
2022/02/02 14:47:13;;;;;;;13.43;2.50;;;;;;;5.49;87.48;101434.44;4973004;28;20053;-74
2022/02/02 14:49:51;;;;;;;17.65;1.85;;;;;;;5.65;85.91;101452.53;4956277;28;20049;-78
2022/02/02 14:52:29;;;;;;;17.08;2.33;;;;;;;5.61;82.03;101453.66;4944767;28;20533;-75
2022/02/02 15:07:02;;;;;;;15.25;1.75;;;;;;;5.28;83.84;101475.66;4957694;28;20051;-75
2022/02/02 15:09:14;;;;;;;23.75;2.25;;;;;;;5.23;84.98;101470.72;4965047;28;20047;-76
2022/02/02 15:28:15;;;;;;;20.23;2.63;;;;;;;4.73;93.70;101504.94;4916326;29;20047;-75
2022/02/02 15:30:58;;;;;;;14.00;1.70;;;;;;;4.43;100.00;101527.44;4929814;29;20157;-75
2022/02/02 15:33:27;;;;;;;13.98;2.42;;;;;;;4.06;100.00;101518.28;4950934;28;20422;-75
2022/02/02 15:38:49;;;;;;;10.82;1.75;;;;;;;3.64;100.00;101527.50;4953047;28;20130;-75
2022/02/02 15:41:21;;;;;;;12.82;2.08;;;;;;;3.50;100.00;101523.03;4965621;28;20058;-75
2022/02/02 15:54:58;;;;;;;21.85;3.67;;;;;;;3.27;100.00;101569.16;4976252;28;20043;-75
2022/02/02 16:05:13;;;;;;;23.63;3.95;;;;;;;3.05;100.00;101573.75;4963563;28;20061;-75
2022/02/02 16:07:38;;;;;;;30.20;4.88;;;;;;;3.20;100.00;101582.50;4949127;28;20501;-75
2022/02/02 16:10:08;;;;;;;25.90;4.43;;;;;;;3.08;100.00;101584.81;4949812;28;20035;-75
2022/02/02 16:12:45;;;;;;;26.90;3.70;;;;;;;3.05;100.00;101574.63;4965989;28;20098;-75
2022/02/02 16:39:07;;;;;;;21.02;3.58;;;;;;;2.59;100.00;101627.84;4976577;28;20413;-77
2022/02/02 16:44:18;;;;;;;25.45;3.58;;;;;;;2.61;100.00;101626.84;4962136;28;20124;-73
2022/02/02 16:46:43;;;;;;;36.72;4.38;;;;;;;2.52;100.00;101627.28;4970213;28;20049;-77
2022/02/02 16:49:09;;;;;;;29.67;4.32;;;;;;;2.56;100.00;101644.34;4974419;28;20109;-75
2022/02/02 16:51:35;;;;;;;29.48;4.53;;;;;;;2.51;100.00;101646.34;4965962;28;20038;-74
2022/02/02 16:54:04;;;;;;;24.70;3.67;;;;;;;2.42;100.00;101644.19;4935566;28;20427;-77
2022/02/02 17:29:38;;;;;;;21.80;3.38;;;;;;;1.99;100.00;101682.38;4966181;28;20378;-76
2022/02/02 17:34:54;;;;;;;28.92;3.38;;;;;;;1.98;100.00;101694.47;4966956;28;20045;-76
2022/02/02 17:40:05;;;;;;;22.95;2.60;;;;;;;1.87;100.00;101694.13;4969844;28;20038;-77
2022/02/02 17:42:58;;;;;;;32.92;2.88;;;;;;;1.80;100.00;101698.69;4958602;28;20533;-76
2022/02/02 17:45:47;;;;;;;24.77;2.92;;;;;;;1.79;100.00;101697.03;4960201;28;20496;-76
2022/02/02 17:57:40;;;;;;;34.38;3.22;;;;;;;1.74;100.00;101711.91;4960618;28;20034;-76
2022/02/02 18:18:53;;;;;;;22.23;2.88;;;;;;;1.58;100.00;101727.22;4929688;29;20043;-74
2022/02/02 18:21:21;;;;;;;22.50;2.58;;;;;;;1.51;100.00;101720.66;4927708;29;20383;-75
2022/02/02 18:23:54;;;;;;;23.33;3.00;;;;;;;1.53;100.00;101732.59;4930683;29;20041;-77
2022/02/02 18:26:35;;;;;;;28.30;2.90;;;;;;;1.53;100.00;101732.59;4926008;29;20036;-76
2022/02/02 18:29:08;;;;;;;21.60;2.80;;;;;;;1.53;100.00;101739.53;4930501;29;20099;-75
2022/02/02 18:43:03;;;;;;;23.05;3.58;;;;;;;1.31;100.00;101744.72;4921864;29;20095;-76
2022/02/02 18:47:59;;;;;;;21.50;3.03;;;;;;;1.41;100.00;101740.84;4932757;29;20099;-75
2022/02/02 18:58:33;;;;;;;30.70;4.72;;;;;;;1.21;100.00;101735.66;4930468;29;20083;-75
2022/02/02 19:04:09;;;;;;;38.17;4.32;;;;;;;1.25;100.00;101739.81;4932647;29;20075;-75
2022/02/02 19:53:08;;;;;;;26.00;3.08;;;;;;;0.28;100.00;101730.59;4925610;29;20054;-75
2022/02/02 19:55:40;;;;;;;22.02;3.20;;;;;;;0.32;100.00;101742.47;4916251;29;20043;-75
2022/02/02 20:03:54;;;;;;;25.23;3.38;;;;;;;0.27;100.00;101727.16;4915884;29;20738;-75
2022/02/02 20:09:21;;;;;;;32.72;4.85;;;;;;;0.27;100.00;101722.00;4922432;29;20058;-76
2022/02/02 20:11:44;;;;;;;26.60;4.70;;;;;;;0.21;100.00;101711.06;4929414;29;20038;-76
2022/02/02 20:14:13;;;;;;;27.35;4.28;;;;;;;0.17;100.00;101726.66;4932492;29;20031;-75
2022/02/02 20:16:39;;;;;;;23.27;3.85;;;;;;;0.15;100.00;101725.03;4928565;29;20545;-75
2022/02/02 20:19:08;;;;;;;24.48;4.93;;;;;;;0.15;100.00;101727.59;4920963;29;20047;-75
2022/02/02 20:21:44;;;;;;;23.30;3.90;;;;;;;0.12;100.00;101722.56;4912344;29;20044;-75
2022/02/02 20:24:09;;;;;;;19.58;3.53;;;;;;;0.09;100.00;101730.41;4928370;29;20047;-75
2022/02/02 20:26:37;;;;;;;29.35;4.50;;;;;;;0.06;100.00;101720.19;4944799;28;20039;-75
2022/02/02 20:29:03;;;;;;;25.73;4.00;;;;;;;0.01;100.00;101728.09;4941457;28;20051;-75
2022/02/02 20:31:32;;;;;;;23.67;3.85;;;;;;;-0.02;100.00;101731.66;4936597;28;20794;-75
2022/02/02 20:33:57;;;;;;;20.00;3.65;;;;;;;-0.07;100.00;101730.13;4926485;29;20055;-76
2022/02/02 20:36:23;;;;;;;25.58;3.85;;;;;;;-0.07;100.00;101733.53;4921867;29;20079;-75
2022/02/02 20:38:48;;;;;;;30.35;4.18;;;;;;;0.00;100.00;101736.75;4911523;29;20083;-75
2022/02/02 20:41:14;;;;;;;27.05;3.90;;;;;;;-0.08;100.00;101739.56;4915386;29;20693;-75
2022/02/02 20:43:53;;;;;;;21.83;4.10;;;;;;;-0.04;100.00;101737.72;4912132;29;20043;-76
2022/02/02 21:08:18;;;;;;;19.65;3.60;;;;;;;0.02;100.00;101758.19;4927570;29;20075;-76
2022/02/02 21:10:40;;;;;;;25.15;4.78;;;;;;;0.07;100.00;101752.84;4927304;29;20811;-76
2022/02/02 21:15:51;;;;;;;24.08;3.40;;;;;;;0.13;100.00;101758.66;4932604;28;20394;-76
2022/02/02 21:18:21;;;;;;;26.00;3.42;;;;;;;0.16;100.00;101753.34;4914103;29;20035;-75
2022/02/02 21:20:59;;;;;;;29.95;3.90;;;;;;;0.21;100.00;101757.50;4928206;29;20043;-76
2022/02/02 21:28:30;;;;;;;34.38;4.07;;;;;;;0.35;100.00;101740.63;4903860;29;20058;-75
2022/02/02 21:30:56;;;;;;;42.58;5.10;;;;;;;0.40;100.00;101748.22;4941715;28;20048;-76
2022/02/02 21:33:21;;;;;;;28.60;4.20;;;;;;;0.35;100.00;101750.94;4931369;29;20038;-75
2022/02/02 21:35:49;;;;;;;24.65;4.45;;;;;;;0.32;100.00;101750.22;4931656;29;20123;-77
2022/02/02 21:41:01;;;;;;;38.45;3.75;;;;;;;0.14;100.00;101739.66;4919301;29;20051;-75
2022/02/02 21:43:28;;;;;;;32.58;4.70;;;;;;;0.09;100.00;101738.97;4930142;29;20032;-78
2022/02/02 21:45:57;;;;;;;22.27;3.53;;;;;;;0.05;100.00;101750.31;4915946;29;20043;-76
2022/02/02 21:48:32;;;;;;;32.13;3.10;;;;;;;-0.07;100.00;101749.00;4943942;28;20028;-75
2022/02/02 21:51:04;;;;;;;25.15;3.78;;;;;;;-0.19;100.00;101744.25;4930860;29;20530;-77
2022/02/02 21:53:30;;;;;;;25.92;3.72;;;;;;;-0.22;100.00;101752.97;4927934;29;20032;-76
2022/02/02 21:55:55;;;;;;;20.25;3.22;;;;;;;-0.27;100.00;101730.81;4913324;29;20055;-76
2022/02/02 21:58:21;;;;;;;28.40;3.50;;;;;;;-0.14;100.00;101741.53;4929254;29;20551;-76
2022/02/02 22:00:47;;;;;;;32.70;3.78;;;;;;;-0.11;100.00;101744.03;4941603;28;20028;-76
2022/02/02 22:03:12;;;;;;;32.10;3.63;;;;;;;-0.09;100.00;101740.50;4928775;29;20095;-76
2022/02/02 22:05:39;;;;;;;30.17;3.72;;;;;;;-0.13;100.00;101743.22;4929416;29;20046;-76
2022/02/02 22:08:10;;;;;;;27.55;3.88;;;;;;;-0.15;100.00;101740.72;4933512;29;20119;-75
2022/02/02 22:10:37;;;;;;;31.30;4.05;;;;;;;-0.14;100.00;101733.81;4914134;29;20040;-74
2022/02/02 22:13:03;;;;;;;28.00;3.33;;;;;;;-0.16;100.00;101727.88;4929205;29;20459;-75
2022/02/02 22:15:38;;;;;;;35.80;4.18;;;;;;;-0.17;100.00;101727.03;4919543;29;20490;-76
2022/02/02 22:18:04;;;;;;;32.45;4.15;;;;;;;-0.21;100.00;101726.28;4950510;28;20136;-75
2022/02/02 22:20:30;;;;;;;29.85;3.53;;;;;;;-0.17;100.00;101727.03;4932647;29;20036;-75
2022/02/02 22:22:56;;;;;;;26.42;3.42;;;;;;;-0.11;100.00;101723.41;4937561;29;20043;-74
2022/02/02 22:25:22;;;;;;;26.13;3.40;;;;;;;-0.10;100.00;101733.63;4918092;29;20095;-74
2022/02/02 22:27:48;;;;;;;28.50;3.60;;;;;;;-0.12;100.00;101725.09;4944247;29;20040;-76
2022/02/02 22:30:14;;;;;;;41.47;4.18;;;;;;;-0.07;100.00;101728.38;4923757;29;21608;-76
2022/02/02 22:32:40;;;;;;;32.97;4.03;;;;;;;0.00;100.00;101716.13;4934952;29;20081;-75
2022/02/02 22:35:06;;;;;;;25.58;3.40;;;;;;;-0.05;100.00;101711.09;4931542;29;20562;-76
2022/02/02 22:37:31;;;;;;;34.28;3.90;;;;;;;0.06;100.00;101713.31;4952506;28;20039;-75